sensor_id;sensor_type;location;lat;lon;timestamp;pressure;altitude;pressure_sealevel;temperature;humidity
23016;BME280;11674;52.428;13.584;2023-04-07T00:02:32;101744.66;;;4.91;53.16
23016;BME280;11674;52.428;13.584;2023-04-07T00:07:39;101738.47;;;4.78;53.56
23016;BME280;11674;52.428;13.584;2023-04-07T00:12:46;101743.59;;;4.74;53.47
23016;BME280;11674;52.428;13.584;2023-04-07T00:17:53;101741.72;;;4.75;53.52
23016;BME280;11674;52.428;13.584;2023-04-07T00:23:00;101729.41;;;4.77;53.47
23016;BME280;11674;52.428;13.584;2023-04-07T00:28:07;101733.47;;;4.75;53.61
23016;BME280;11674;52.428;13.584;2023-04-07T00:33:14;101730.72;;;4.75;53.61
23016;BME280;11674;52.428;13.584;2023-04-07T00:38:22;101724.38;;;4.74;53.64
23016;BME280;11674;52.428;13.584;2023-04-07T00:43:29;101724.00;;;4.71;53.67
23016;BME280;11674;52.428;13.584;2023-04-07T00:48:36;101726.72;;;4.71;53.75
23016;BME280;11674;52.428;13.584;2023-04-07T00:53:43;101711.06;;;4.71;53.81
23016;BME280;11674;52.428;13.584;2023-04-07T00:58:50;101712.78;;;4.72;53.87
23016;BME280;11674;52.428;13.584;2023-04-07T01:04:04;101697.59;;;4.70;54.06
23016;BME280;11674;52.428;13.584;2023-04-07T01:09:39;101705.81;;;4.70;54.15
23016;BME280;11674;52.428;13.584;2023-04-07T01:14:56;101699.03;;;4.72;54.25
23016;BME280;11674;52.428;13.584;2023-04-07T01:20:19;101697.09;;;4.73;54.37
23016;BME280;11674;52.428;13.584;2023-04-07T01:25:43;101695.22;;;4.73;54.25
23016;BME280;11674;52.428;13.584;2023-04-07T01:31:00;101691.25;;;4.69;54.16
23016;BME280;11674;52.428;13.584;2023-04-07T01:36:08;101684.28;;;4.67;54.36
23016;BME280;11674;52.428;13.584;2023-04-07T01:41:16;101684.78;;;4.64;54.50
23016;BME280;11674;52.428;13.584;2023-04-07T01:46:25;101691.78;;;4.60;54.47
23016;BME280;11674;52.428;13.584;2023-04-07T01:51:33;101692.06;;;4.52;54.40
23016;BME280;11674;52.428;13.584;2023-04-07T01:56:40;101690.88;;;4.48;54.56
23016;BME280;11674;52.428;13.584;2023-04-07T02:01:47;101686.56;;;4.52;54.53
23016;BME280;11674;52.428;13.584;2023-04-07T02:06:58;101684.47;;;4.54;54.51
23016;BME280;11674;52.428;13.584;2023-04-07T02:12:15;101674.50;;;4.53;54.65
23016;BME280;11674;52.428;13.584;2023-04-07T02:17:38;101659.75;;;4.54;54.64
23016;BME280;11674;52.428;13.584;2023-04-07T02:22:46;101668.56;;;4.56;54.70
23016;BME280;11674;52.428;13.584;2023-04-07T02:27:54;101667.97;;;4.54;54.73
23016;BME280;11674;52.428;13.584;2023-04-07T02:33:01;101664.59;;;4.52;54.80
23016;BME280;11674;52.428;13.584;2023-04-07T02:38:08;101668.91;;;4.48;54.79
23016;BME280;11674;52.428;13.584;2023-04-07T02:43:15;101662.16;;;4.44;54.81
23016;BME280;11674;52.428;13.584;2023-04-07T02:48:24;101656.69;;;4.44;54.89
23016;BME280;11674;52.428;13.584;2023-04-07T02:53:32;101665.28;;;4.47;54.88
23016;BME280;11674;52.428;13.584;2023-04-07T02:58:39;101661.47;;;4.48;54.84
23016;BME280;11674;52.428;13.584;2023-04-07T03:03:46;101661.69;;;4.47;55.01
23016;BME280;11674;52.428;13.584;2023-04-07T03:08:57;101653.22;;;4.48;54.88
23016;BME280;11674;52.428;13.584;2023-04-07T03:14:04;101654.69;;;4.51;55.05
23016;BME280;11674;52.428;13.584;2023-04-07T03:19:19;101642.94;;;4.62;54.83
23016;BME280;11674;52.428;13.584;2023-04-07T03:24:26;101636.50;;;4.68;54.97
23016;BME280;11674;52.428;13.584;2023-04-07T03:29:33;101643.81;;;4.74;55.08
23016;BME280;11674;52.428;13.584;2023-04-07T03:34:42;101635.72;;;4.79;54.99
23016;BME280;11674;52.428;13.584;2023-04-07T03:39:50;101630.59;;;4.82;55.07
23016;BME280;11674;52.428;13.584;2023-04-07T03:45:00;101635.88;;;4.84;55.06
23016;BME280;11674;52.428;13.584;2023-04-07T03:50:09;101628.34;;;4.79;55.20
23016;BME280;11674;52.428;13.584;2023-04-07T03:55:26;101634.06;;;4.78;55.17
23016;BME280;11674;52.428;13.584;2023-04-07T04:00:58;101632.63;;;4.75;55.31
23016;BME280;11674;52.428;13.584;2023-04-07T04:06:05;101629.50;;;4.72;55.17
23016;BME280;11674;52.428;13.584;2023-04-07T04:11:12;101628.41;;;4.73;55.27
23016;BME280;11674;52.428;13.584;2023-04-07T04:16:28;101633.69;;;4.74;55.46
23016;BME280;11674;52.428;13.584;2023-04-07T04:21:42;101632.84;;;4.74;55.40
23016;BME280;11674;52.428;13.584;2023-04-07T04:26:49;101627.59;;;4.72;55.41
23016;BME280;11674;52.428;13.584;2023-04-07T04:31:57;101635.31;;;4.64;55.38
23016;BME280;11674;52.428;13.584;2023-04-07T04:37:05;101634.25;;;4.65;55.51
23016;BME280;11674;52.428;13.584;2023-04-07T04:42:15;101636.72;;;4.66;55.33
23016;BME280;11674;52.428;13.584;2023-04-07T04:47:22;101638.06;;;4.64;55.54
23016;BME280;11674;52.428;13.584;2023-04-07T04:52:30;101637.38;;;4.68;55.47
23016;BME280;11674;52.428;13.584;2023-04-07T04:57:37;101643.22;;;4.72;55.55
23016;BME280;11674;52.428;13.584;2023-04-07T05:02:47;101650.31;;;4.79;55.39
23016;BME280;11674;52.428;13.584;2023-04-07T05:07:54;101647.50;;;4.86;55.69
23016;BME280;11674;52.428;13.584;2023-04-07T05:13:07;101651.06;;;4.86;55.63
23016;BME280;11674;52.428;13.584;2023-04-07T05:18:14;101650.25;;;4.86;55.65
23016;BME280;11674;52.428;13.584;2023-04-07T05:23:21;101630.31;;;4.90;55.70
23016;BME280;11674;52.428;13.584;2023-04-07T05:28:28;101641.66;;;4.94;55.71
23016;BME280;11674;52.428;13.584;2023-04-07T05:33:39;101638.63;;;5.02;55.68
23016;BME280;11674;52.428;13.584;2023-04-07T05:38:46;101642.25;;;5.14;55.67
23016;BME280;11674;52.428;13.584;2023-04-07T05:43:53;101641.31;;;5.20;55.59
23016;BME280;11674;52.428;13.584;2023-04-07T05:49:01;101641.72;;;5.35;55.64
23016;BME280;11674;52.428;13.584;2023-04-07T05:54:08;101639.97;;;5.52;55.58
23016;BME280;11674;52.428;13.584;2023-04-07T05:59:16;101640.22;;;5.62;55.61
23016;BME280;11674;52.428;13.584;2023-04-07T06:04:24;101646.50;;;5.80;55.78
23016;BME280;11674;52.428;13.584;2023-04-07T06:09:31;101655.00;;;6.02;55.80
23016;BME280;11674;52.428;13.584;2023-04-07T06:14:38;101657.53;;;6.15;55.85
23016;BME280;11674;52.428;13.584;2023-04-07T06:19:45;101662.94;;;6.21;55.61
23016;BME280;11674;52.428;13.584;2023-04-07T06:24:52;101668.44;;;6.10;55.77
23016;BME280;11674;52.428;13.584;2023-04-07T06:29:59;101676.00;;;6.03;55.69
23016;BME280;11674;52.428;13.584;2023-04-07T06:35:06;101672.63;;;6.01;55.75
23016;BME280;11674;52.428;13.584;2023-04-07T06:40:13;101668.41;;;5.98;55.78
23016;BME280;11674;52.428;13.584;2023-04-07T06:45:20;101666.16;;;5.95;55.86
23016;BME280;11674;52.428;13.584;2023-04-07T06:50:27;101668.78;;;6.02;55.63
23016;BME280;11674;52.428;13.584;2023-04-07T06:55:34;101673.22;;;6.14;55.78
23016;BME280;11674;52.428;13.584;2023-04-07T07:00:48;101679.09;;;6.41;55.89
23016;BME280;11674;52.428;13.584;2023-04-07T07:05:55;101675.00;;;6.55;55.76
23016;BME280;11674;52.428;13.584;2023-04-07T07:11:02;101673.88;;;6.79;55.86
23016;BME280;11674;52.428;13.584;2023-04-07T07:16:09;101675.53;;;6.91;55.68
23016;BME280;11674;52.428;13.584;2023-04-07T07:21:17;101673.47;;;6.98;55.69
23016;BME280;11674;52.428;13.584;2023-04-07T07:26:24;101679.88;;;7.15;55.74
23016;BME280;11674;52.428;13.584;2023-04-07T07:31:31;101667.47;;;7.29;55.53
23016;BME280;11674;52.428;13.584;2023-04-07T07:36:38;101668.94;;;7.48;55.66
23016;BME280;11674;52.428;13.584;2023-04-07T07:41:45;101675.38;;;7.54;55.58
23016;BME280;11674;52.428;13.584;2023-04-07T07:46:52;101671.72;;;7.65;55.64
23016;BME280;11674;52.428;13.584;2023-04-07T07:51:59;101674.19;;;7.94;55.57
23016;BME280;11674;52.428;13.584;2023-04-07T07:57:06;101682.56;;;8.16;55.46
23016;BME280;11674;52.428;13.584;2023-04-07T08:02:13;101681.13;;;8.30;55.62
23016;BME280;11674;52.428;13.584;2023-04-07T08:07:20;101685.31;;;8.49;55.30
23016;BME280;11674;52.428;13.584;2023-04-07T08:12:27;101686.03;;;8.61;55.26
23016;BME280;11674;52.428;13.584;2023-04-07T08:17:35;101677.88;;;8.71;55.13
23016;BME280;11674;52.428;13.584;2023-04-07T08:22:42;101685.53;;;8.85;54.61
23016;BME280;11674;52.428;13.584;2023-04-07T08:27:49;101679.94;;;8.80;54.40
23016;BME280;11674;52.428;13.584;2023-04-07T08:32:56;101682.72;;;9.02;53.80
23016;BME280;11674;52.428;13.584;2023-04-07T08:38:03;101677.88;;;8.92;53.64
23016;BME280;11674;52.428;13.584;2023-04-07T08:43:11;101682.06;;;8.95;53.26
23016;BME280;11674;52.428;13.584;2023-04-07T08:48:22;101690.00;;;9.08;52.88
23016;BME280;11674;52.428;13.584;2023-04-07T08:53:39;101697.50;;;9.12;52.40
23016;BME280;11674;52.428;13.584;2023-04-07T08:58:47;101695.41;;;8.98;51.50
23016;BME280;11674;52.428;13.584;2023-04-07T09:03:56;101698.75;;;8.78;51.31
23016;BME280;11674;52.428;13.584;2023-04-07T09:09:03;101700.09;;;8.76;51.28
23016;BME280;11674;52.428;13.584;2023-04-07T09:14:11;101703.34;;;8.73;51.08
23016;BME280;11674;52.428;13.584;2023-04-07T09:19:18;101700.97;;;8.81;51.18
23016;BME280;11674;52.428;13.584;2023-04-07T09:24:26;101701.25;;;8.80;50.92
23016;BME280;11674;52.428;13.584;2023-04-07T09:29:34;101717.31;;;8.61;50.51
23016;BME280;11674;52.428;13.584;2023-04-07T09:34:41;101720.84;;;8.40;50.02
23016;BME280;11674;52.428;13.584;2023-04-07T09:39:50;101710.53;;;8.36;50.09
23016;BME280;11674;52.428;13.584;2023-04-07T09:45:00;101714.56;;;8.45;49.77
23016;BME280;11674;52.428;13.584;2023-04-07T09:50:07;101720.56;;;8.42;49.48
23016;BME280;11674;52.428;13.584;2023-04-07T09:55:14;101712.47;;;8.35;49.22
23016;BME280;11674;52.428;13.584;2023-04-07T10:00:23;101723.03;;;8.22;48.63
23016;BME280;11674;52.428;13.584;2023-04-07T10:05:30;101717.13;;;8.18;48.42
23016;BME280;11674;52.428;13.584;2023-04-07T10:10:40;101718.97;;;8.13;48.02
23016;BME280;11674;52.428;13.584;2023-04-07T10:15:48;101721.34;;;8.21;48.34
23016;BME280;11674;52.428;13.584;2023-04-07T10:20:56;101717.59;;;8.27;48.35
23016;BME280;11674;52.428;13.584;2023-04-07T10:26:04;101708.94;;;8.40;48.34
23016;BME280;11674;52.428;13.584;2023-04-07T10:31:12;101719.06;;;8.51;48.41
23016;BME280;11674;52.428;13.584;2023-04-07T10:36:20;101724.75;;;8.61;48.31
23016;BME280;11674;52.428;13.584;2023-04-07T10:41:31;101711.69;;;8.56;48.06
23016;BME280;11674;52.428;13.584;2023-04-07T10:57:19;101712.44;;;8.52;48.01
23016;BME280;11674;52.428;13.584;2023-04-07T11:07:47;101705.56;;;8.54;48.37
23016;BME280;11674;52.428;13.584;2023-04-07T11:12:59;101702.69;;;8.28;49.05
23016;BME280;11674;52.428;13.584;2023-04-07T11:23:19;101706.94;;;8.35;49.76
23016;BME280;11674;52.428;13.584;2023-04-07T11:28:26;101708.38;;;8.38;50.15
23016;BME280;11674;52.428;13.584;2023-04-07T11:33:33;101707.09;;;8.45;50.63
23016;BME280;11674;52.428;13.584;2023-04-07T11:38:40;101713.78;;;8.49;51.02
23016;BME280;11674;52.428;13.584;2023-04-07T11:43:47;101708.69;;;8.41;51.66
23016;BME280;11674;52.428;13.584;2023-04-07T11:48:54;101710.44;;;8.31;52.68
23016;BME280;11674;52.428;13.584;2023-04-07T11:54:01;101699.38;;;7.98;53.79
23016;BME280;11674;52.428;13.584;2023-04-07T11:59:08;101699.09;;;7.83;55.08
23016;BME280;11674;52.428;13.584;2023-04-07T12:04:15;101710.94;;;7.95;55.18
23016;BME280;11674;52.428;13.584;2023-04-07T12:09:32;101698.03;;;8.00;55.87
23016;BME280;11674;52.428;13.584;2023-04-07T12:14:39;101708.19;;;7.95;56.26
23016;BME280;11674;52.428;13.584;2023-04-07T12:19:46;101709.00;;;7.79;56.42
23016;BME280;11674;52.428;13.584;2023-04-07T12:24:53;101702.69;;;7.67;57.08
23016;BME280;11674;52.428;13.584;2023-04-07T12:30:00;101706.72;;;7.76;57.24
23016;BME280;11674;52.428;13.584;2023-04-07T12:35:07;101711.66;;;7.74;57.55
23016;BME280;11674;52.428;13.584;2023-04-07T12:40:14;101707.88;;;7.63;57.91
23016;BME280;11674;52.428;13.584;2023-04-07T12:45:21;101700.91;;;7.61;58.48
23016;BME280;11674;52.428;13.584;2023-04-07T12:50:28;101698.91;;;7.73;58.77
23016;BME280;11674;52.428;13.584;2023-04-07T12:55:35;101699.19;;;7.88;59.15
23016;BME280;11674;52.428;13.584;2023-04-07T13:00:42;101698.28;;;7.99;59.27
23016;BME280;11674;52.428;13.584;2023-04-07T13:05:49;101698.13;;;8.05;59.33
23016;BME280;11674;52.428;13.584;2023-04-07T13:10:56;101697.13;;;8.11;59.42
23016;BME280;11674;52.428;13.584;2023-04-07T13:16:03;101697.56;;;8.20;59.42
23016;BME280;11674;52.428;13.584;2023-04-07T13:21:10;101705.13;;;8.24;59.65
23016;BME280;11674;52.428;13.584;2023-04-07T13:26:17;101696.09;;;8.17;59.89
23016;BME280;11674;52.428;13.584;2023-04-07T13:31:24;101692.19;;;8.30;59.87
23016;BME280;11674;52.428;13.584;2023-04-07T13:36:31;101698.50;;;8.25;60.00
23016;BME280;11674;52.428;13.584;2023-04-07T13:41:38;101703.94;;;8.20;60.11
23016;BME280;11674;52.428;13.584;2023-04-07T13:46:45;101686.72;;;8.18;60.11
23016;BME280;11674;52.428;13.584;2023-04-07T13:51:52;101694.69;;;8.15;60.25
23016;BME280;11674;52.428;13.584;2023-04-07T13:56:59;101678.69;;;8.00;60.38
23016;BME280;11674;52.428;13.584;2023-04-07T14:02:06;101691.66;;;7.83;60.76
23016;BME280;11674;52.428;13.584;2023-04-07T14:07:13;101676.09;;;7.77;60.91
23016;BME280;11674;52.428;13.584;2023-04-07T14:12:20;101678.09;;;7.65;61.24
23016;BME280;11674;52.428;13.584;2023-04-07T14:17:27;101681.34;;;7.62;61.56
23016;BME280;11674;52.428;13.584;2023-04-07T14:22:34;101671.88;;;7.58;61.89
23016;BME280;11674;52.428;13.584;2023-04-07T14:27:41;101674.53;;;7.53;62.07
23016;BME280;11674;52.428;13.584;2023-04-07T14:32:48;101669.19;;;7.47;62.58
23016;BME280;11674;52.428;13.584;2023-04-07T14:37:55;101667.34;;;7.52;62.67
23016;BME280;11674;52.428;13.584;2023-04-07T14:43:05;101675.81;;;7.62;62.70
23016;BME280;11674;52.428;13.584;2023-04-07T14:48:12;101677.81;;;7.67;62.85
23016;BME280;11674;52.428;13.584;2023-04-07T14:53:19;101683.34;;;7.67;63.04
23016;BME280;11674;52.428;13.584;2023-04-07T14:58:26;101674.97;;;7.62;63.47
23016;BME280;11674;52.428;13.584;2023-04-07T15:03:33;101678.25;;;7.59;63.79
23016;BME280;11674;52.428;13.584;2023-04-07T15:08:40;101682.09;;;7.58;63.96
23016;BME280;11674;52.428;13.584;2023-04-07T15:13:47;101676.22;;;7.54;64.37
23016;BME280;11674;52.428;13.584;2023-04-07T15:18:54;101678.50;;;7.57;64.64
23016;BME280;11674;52.428;13.584;2023-04-07T15:24:01;101690.47;;;7.63;64.77
23016;BME280;11674;52.428;13.584;2023-04-07T15:29:08;101673.91;;;7.63;64.92
23016;BME280;11674;52.428;13.584;2023-04-07T15:34:22;101680.00;;;7.65;65.25
23016;BME280;11674;52.428;13.584;2023-04-07T15:39:29;101681.69;;;7.66;65.31
23016;BME280;11674;52.428;13.584;2023-04-07T15:44:36;101681.81;;;7.59;65.56
23016;BME280;11674;52.428;13.584;2023-04-07T15:49:43;101678.25;;;7.59;65.84
23016;BME280;11674;52.428;13.584;2023-04-07T15:54:50;101679.69;;;7.61;66.01
23016;BME280;11674;52.428;13.584;2023-04-07T15:59:57;101678.50;;;7.57;66.22
23016;BME280;11674;52.428;13.584;2023-04-07T16:05:06;101679.91;;;7.60;66.54
23016;BME280;11674;52.428;13.584;2023-04-07T16:10:13;101684.97;;;7.63;67.02
23016;BME280;11674;52.428;13.584;2023-04-07T16:15:20;101690.56;;;7.68;67.45
23016;BME280;11674;52.428;13.584;2023-04-07T16:20:27;101687.38;;;7.76;67.71
23016;BME280;11674;52.428;13.584;2023-04-07T16:25:34;101693.00;;;7.81;67.93
23016;BME280;11674;52.428;13.584;2023-04-07T16:30:41;101685.81;;;7.80;68.22
23016;BME280;11674;52.428;13.584;2023-04-07T16:35:48;101678.94;;;7.82;68.53
23016;BME280;11674;52.428;13.584;2023-04-07T16:40:55;101679.19;;;7.81;68.88
23016;BME280;11674;52.428;13.584;2023-04-07T16:46:02;101681.28;;;7.90;69.27
23016;BME280;11674;52.428;13.584;2023-04-07T16:51:14;101673.84;;;7.91;69.49
23016;BME280;11674;52.428;13.584;2023-04-07T16:56:22;101678.13;;;7.98;69.82
23016;BME280;11674;52.428;13.584;2023-04-07T17:01:30;101673.75;;;8.02;69.99
23016;BME280;11674;52.428;13.584;2023-04-07T17:06:37;101685.81;;;7.96;70.26
23016;BME280;11674;52.428;13.584;2023-04-07T17:11:44;101684.38;;;7.94;70.58
23016;BME280;11674;52.428;13.584;2023-04-07T17:16:51;101699.28;;;7.93;70.87
23016;BME280;11674;52.428;13.584;2023-04-07T17:21:58;101702.91;;;7.93;70.97
23016;BME280;11674;52.428;13.584;2023-04-07T17:27:05;101700.94;;;7.94;71.30
23016;BME280;11674;52.428;13.584;2023-04-07T17:32:12;101703.47;;;7.95;71.52
23016;BME280;11674;52.428;13.584;2023-04-07T17:37:19;101719.81;;;7.97;71.63
23016;BME280;11674;52.428;13.584;2023-04-07T17:42:26;101709.31;;;7.99;72.09
23016;BME280;11674;52.428;13.584;2023-04-07T17:47:34;101712.94;;;7.99;72.21
23016;BME280;11674;52.428;13.584;2023-04-07T17:52:41;101724.00;;;7.99;72.55
23016;BME280;11674;52.428;13.584;2023-04-07T17:57:48;101727.00;;;7.98;72.69
23016;BME280;11674;52.428;13.584;2023-04-07T18:02:55;101724.56;;;8.01;73.01
23016;BME280;11674;52.428;13.584;2023-04-07T18:08:02;101731.53;;;8.04;73.21
23016;BME280;11674;52.428;13.584;2023-04-07T18:13:09;101729.84;;;8.03;73.36
23016;BME280;11674;52.428;13.584;2023-04-07T18:18:16;101735.94;;;8.05;73.52
23016;BME280;11674;52.428;13.584;2023-04-07T18:23:23;101738.38;;;8.01;73.78
23016;BME280;11674;52.428;13.584;2023-04-07T18:28:30;101745.56;;;8.02;74.38
23016;BME280;11674;52.428;13.584;2023-04-07T18:33:37;101743.66;;;8.03;74.82
23016;BME280;11674;52.428;13.584;2023-04-07T18:38:44;101749.44;;;8.01;75.09
23016;BME280;11674;52.428;13.584;2023-04-07T18:43:51;101761.81;;;7.99;75.31
23016;BME280;11674;52.428;13.584;2023-04-07T18:48:58;101765.44;;;7.99;75.51
23016;BME280;11674;52.428;13.584;2023-04-07T18:54:05;101776.63;;;7.93;75.73
23016;BME280;11674;52.428;13.584;2023-04-07T18:59:12;101787.09;;;7.91;76.10
23016;BME280;11674;52.428;13.584;2023-04-07T19:04:19;101785.66;;;7.88;76.40
23016;BME280;11674;52.428;13.584;2023-04-07T19:09:26;101785.06;;;7.86;76.67
23016;BME280;11674;52.428;13.584;2023-04-07T19:14:33;101780.63;;;7.85;76.80
23016;BME280;11674;52.428;13.584;2023-04-07T19:19:40;101786.44;;;7.84;77.03
23016;BME280;11674;52.428;13.584;2023-04-07T19:24:47;101798.53;;;7.83;77.25
23016;BME280;11674;52.428;13.584;2023-04-07T19:29:54;101803.81;;;7.84;77.44
23016;BME280;11674;52.428;13.584;2023-04-07T19:35:01;101800.47;;;7.82;77.58
23016;BME280;11674;52.428;13.584;2023-04-07T19:40:09;101797.94;;;7.81;77.68
23016;BME280;11674;52.428;13.584;2023-04-07T19:45:15;101777.78;;;7.80;77.82
23016;BME280;11674;52.428;13.584;2023-04-07T19:50:22;101779.94;;;7.78;77.94
23016;BME280;11674;52.428;13.584;2023-04-07T19:55:29;101781.38;;;7.81;78.22
23016;BME280;11674;52.428;13.584;2023-04-07T20:00:37;101775.00;;;7.80;78.40
23016;BME280;11674;52.428;13.584;2023-04-07T20:05:44;101795.78;;;7.83;78.48
23016;BME280;11674;52.428;13.584;2023-04-07T20:10:51;101786.91;;;7.81;78.60
23016;BME280;11674;52.428;13.584;2023-04-07T20:15:58;101785.72;;;7.77;78.59
23016;BME280;11674;52.428;13.584;2023-04-07T20:21:05;101774.09;;;7.75;78.76
23016;BME280;11674;52.428;13.584;2023-04-07T20:26:12;101783.47;;;7.74;78.89
23016;BME280;11674;52.428;13.584;2023-04-07T20:31:19;101784.13;;;7.81;79.07
23016;BME280;11674;52.428;13.584;2023-04-07T20:36:26;101781.13;;;7.82;79.09
23016;BME280;11674;52.428;13.584;2023-04-07T20:41:33;101795.44;;;7.79;79.07
23016;BME280;11674;52.428;13.584;2023-04-07T20:46:40;101788.72;;;7.75;79.20
23016;BME280;11674;52.428;13.584;2023-04-07T20:51:47;101788.13;;;7.73;79.26
23016;BME280;11674;52.428;13.584;2023-04-07T20:56:54;101786.72;;;7.71;79.28
23016;BME280;11674;52.428;13.584;2023-04-07T21:02:01;101796.41;;;7.73;79.44
23016;BME280;11674;52.428;13.584;2023-04-07T21:07:08;101794.75;;;7.72;79.47
23016;BME280;11674;52.428;13.584;2023-04-07T21:12:15;101805.78;;;7.72;79.61
23016;BME280;11674;52.428;13.584;2023-04-07T21:17:22;101794.75;;;7.72;79.62
23016;BME280;11674;52.428;13.584;2023-04-07T21:22:29;101791.75;;;7.74;79.73
23016;BME280;11674;52.428;13.584;2023-04-07T21:27:36;101797.28;;;7.74;79.77
23016;BME280;11674;52.428;13.584;2023-04-07T21:32:46;101797.28;;;7.74;79.92
23016;BME280;11674;52.428;13.584;2023-04-07T21:37:54;101811.66;;;7.76;79.80
23016;BME280;11674;52.428;13.584;2023-04-07T21:43:01;101790.66;;;7.75;79.81
23016;BME280;11674;52.428;13.584;2023-04-07T21:48:08;101791.38;;;7.70;79.78
23016;BME280;11674;52.428;13.584;2023-04-07T21:53:15;101789.22;;;7.72;80.06
23016;BME280;11674;52.428;13.584;2023-04-07T21:58:22;101795.22;;;7.69;80.02
23016;BME280;11674;52.428;13.584;2023-04-07T22:03:29;101791.88;;;7.67;80.04
23016;BME280;11674;52.428;13.584;2023-04-07T22:08:36;101796.81;;;7.65;80.28
23016;BME280;11674;52.428;13.584;2023-04-07T22:13:43;101789.72;;;7.69;80.18
23016;BME280;11674;52.428;13.584;2023-04-07T22:18:50;101792.75;;;7.68;80.20
23016;BME280;11674;52.428;13.584;2023-04-07T22:23:57;101788.03;;;7.68;80.23
23016;BME280;11674;52.428;13.584;2023-04-07T22:29:04;101789.13;;;7.67;80.30
23016;BME280;11674;52.428;13.584;2023-04-07T22:34:11;101791.13;;;7.72;80.40
23016;BME280;11674;52.428;13.584;2023-04-07T22:39:18;101789.72;;;7.69;80.43
23016;BME280;11674;52.428;13.584;2023-04-07T22:44:25;101791.88;;;7.67;80.48
23016;BME280;11674;52.428;13.584;2023-04-07T22:49:32;101793.56;;;7.68;80.54
23016;BME280;11674;52.428;13.584;2023-04-07T22:54:39;101797.16;;;7.69;80.42
23016;BME280;11674;52.428;13.584;2023-04-07T22:59:46;101798.84;;;7.70;80.61
23016;BME280;11674;52.428;13.584;2023-04-07T23:04:53;101810.47;;;7.72;80.56
23016;BME280;11674;52.428;13.584;2023-04-07T23:10:00;101809.31;;;7.68;80.58
23016;BME280;11674;52.428;13.584;2023-04-07T23:15:07;101808.13;;;7.64;80.73
23016;BME280;11674;52.428;13.584;2023-04-07T23:20:14;101795.63;;;7.61;80.72
23016;BME280;11674;52.428;13.584;2023-04-07T23:25:21;101799.09;;;7.57;80.74
23016;BME280;11674;52.428;13.584;2023-04-07T23:30:28;101795.28;;;7.58;80.90
23016;BME280;11674;52.428;13.584;2023-04-07T23:35:35;101792.03;;;7.61;80.92
23016;BME280;11674;52.428;13.584;2023-04-07T23:40:42;101800.91;;;7.63;81.04
23016;BME280;11674;52.428;13.584;2023-04-07T23:45:49;101792.88;;;7.61;81.00
23016;BME280;11674;52.428;13.584;2023-04-07T23:50:56;101799.47;;;7.60;80.97
23016;BME280;11674;52.428;13.584;2023-04-07T23:56:03;101795.53;;;7.56;81.06
